sensor_id;sensor_type;location;lat;lon;timestamp;temperature;humidity
66184;DHT22;52989;48.796;9.806;2023-06-04T00:02:05;14.00;78.70
66184;DHT22;52989;48.796;9.806;2023-06-04T00:04:31;14.00;79.60
66184;DHT22;52989;48.796;9.806;2023-06-04T00:06:56;14.10;78.80
66184;DHT22;52989;48.796;9.806;2023-06-04T00:09:22;13.90;80.60
66184;DHT22;52989;48.796;9.806;2023-06-04T00:11:47;13.90;78.90
66184;DHT22;52989;48.796;9.806;2023-06-04T00:14:13;13.90;78.50
66184;DHT22;52989;48.796;9.806;2023-06-04T00:16:39;13.70;80.00
66184;DHT22;52989;48.796;9.806;2023-06-04T00:19:06;13.70;78.90
66184;DHT22;52989;48.796;9.806;2023-06-04T00:21:31;13.70;79.30
66184;DHT22;52989;48.796;9.806;2023-06-04T00:23:57;13.70;79.30
66184;DHT22;52989;48.796;9.806;2023-06-04T00:26:23;13.70;79.80
66184;DHT22;52989;48.796;9.806;2023-06-04T00:28:48;13.80;78.50
66184;DHT22;52989;48.796;9.806;2023-06-04T00:31:14;13.70;78.50
66184;DHT22;52989;48.796;9.806;2023-06-04T00:33:39;13.80;77.70
66184;DHT22;52989;48.796;9.806;2023-06-04T00:36:05;13.80;78.70
66184;DHT22;52989;48.796;9.806;2023-06-04T00:38:30;13.60;80.00
66184;DHT22;52989;48.796;9.806;2023-06-04T00:40:56;13.60;80.80
66184;DHT22;52989;48.796;9.806;2023-06-04T00:43:21;13.50;79.70
66184;DHT22;52989;48.796;9.806;2023-06-04T00:45:51;13.60;79.10
66184;DHT22;52989;48.796;9.806;2023-06-04T00:48:17;13.60;77.30
66184;DHT22;52989;48.796;9.806;2023-06-04T00:50:42;13.60;77.20
66184;DHT22;52989;48.796;9.806;2023-06-04T00:53:08;13.60;76.20
66184;DHT22;52989;48.796;9.806;2023-06-04T00:55:36;13.60;76.00
66184;DHT22;52989;48.796;9.806;2023-06-04T00:58:01;13.70;76.30
66184;DHT22;52989;48.796;9.806;2023-06-04T01:00:29;13.60;77.10
66184;DHT22;52989;48.796;9.806;2023-06-04T01:02:55;13.60;76.10
66184;DHT22;52989;48.796;9.806;2023-06-04T01:05:41;13.60;76.70
66184;DHT22;52989;48.796;9.806;2023-06-04T01:08:09;13.50;76.50
66184;DHT22;52989;48.796;9.806;2023-06-04T01:10:37;13.50;76.80
66184;DHT22;52989;48.796;9.806;2023-06-04T01:13:02;13.50;77.00
66184;DHT22;52989;48.796;9.806;2023-06-04T01:15:28;13.30;77.10
66184;DHT22;52989;48.796;9.806;2023-06-04T01:17:58;13.30;77.10
66184;DHT22;52989;48.796;9.806;2023-06-04T01:20:30;13.20;78.30
66184;DHT22;52989;48.796;9.806;2023-06-04T01:25:39;13.00;79.70
66184;DHT22;52989;48.796;9.806;2023-06-04T01:28:06;12.90;78.90
66184;DHT22;52989;48.796;9.806;2023-06-04T01:30:33;12.80;80.50
66184;DHT22;52989;48.796;9.806;2023-06-04T01:32:59;12.50;79.60
66184;DHT22;52989;48.796;9.806;2023-06-04T01:35:29;12.70;79.20
66184;DHT22;52989;48.796;9.806;2023-06-04T01:37:56;12.50;81.20
66184;DHT22;52989;48.796;9.806;2023-06-04T01:40:22;12.40;80.10
66184;DHT22;52989;48.796;9.806;2023-06-04T01:42:47;12.40;78.70
66184;DHT22;52989;48.796;9.806;2023-06-04T01:45:13;12.40;78.80
66184;DHT22;52989;48.796;9.806;2023-06-04T01:47:38;12.50;78.30
66184;DHT22;52989;48.796;9.806;2023-06-04T01:50:04;12.60;77.70
66184;DHT22;52989;48.796;9.806;2023-06-04T01:52:30;12.50;78.70
66184;DHT22;52989;48.796;9.806;2023-06-04T01:54:56;12.50;78.50
66184;DHT22;52989;48.796;9.806;2023-06-04T01:57:22;12.40;79.80
66184;DHT22;52989;48.796;9.806;2023-06-04T01:59:48;12.30;80.60
66184;DHT22;52989;48.796;9.806;2023-06-04T02:02:14;12.20;79.90
66184;DHT22;52989;48.796;9.806;2023-06-04T02:04:40;12.10;80.80
66184;DHT22;52989;48.796;9.806;2023-06-04T02:07:08;12.00;80.80
66184;DHT22;52989;48.796;9.806;2023-06-04T02:09:33;11.90;81.00
66184;DHT22;52989;48.796;9.806;2023-06-04T02:12:00;11.80;81.60
66184;DHT22;52989;48.796;9.806;2023-06-04T02:14:25;11.90;82.50
66184;DHT22;52989;48.796;9.806;2023-06-04T02:16:51;11.80;80.90
66184;DHT22;52989;48.796;9.806;2023-06-04T02:19:19;11.80;80.50
66184;DHT22;52989;48.796;9.806;2023-06-04T02:21:45;11.60;80.30
66184;DHT22;52989;48.796;9.806;2023-06-04T02:24:10;11.60;80.30
66184;DHT22;52989;48.796;9.806;2023-06-04T02:26:36;11.70;81.40
66184;DHT22;52989;48.796;9.806;2023-06-04T02:29:01;11.70;81.90
66184;DHT22;52989;48.796;9.806;2023-06-04T02:31:27;11.40;80.20
66184;DHT22;52989;48.796;9.806;2023-06-04T02:33:52;11.40;80.50
66184;DHT22;52989;48.796;9.806;2023-06-04T02:36:18;11.30;80.20
66184;DHT22;52989;48.796;9.806;2023-06-04T02:38:43;11.30;80.50
66184;DHT22;52989;48.796;9.806;2023-06-04T02:41:09;11.30;80.00
66184;DHT22;52989;48.796;9.806;2023-06-04T02:43:34;11.30;79.60
66184;DHT22;52989;48.796;9.806;2023-06-04T02:46:00;11.30;79.40
66184;DHT22;52989;48.796;9.806;2023-06-04T02:48:25;11.30;80.60
66184;DHT22;52989;48.796;9.806;2023-06-04T02:50:51;11.20;81.00
66184;DHT22;52989;48.796;9.806;2023-06-04T02:53:16;11.20;80.40
66184;DHT22;52989;48.796;9.806;2023-06-04T02:55:42;11.10;82.80
66184;DHT22;52989;48.796;9.806;2023-06-04T02:58:07;11.00;82.10
66184;DHT22;52989;48.796;9.806;2023-06-04T03:00:34;10.90;81.40
66184;DHT22;52989;48.796;9.806;2023-06-04T03:03:00;10.90;82.90
66184;DHT22;52989;48.796;9.806;2023-06-04T03:05:29;10.80;80.80
66184;DHT22;52989;48.796;9.806;2023-06-04T03:07:57;10.90;80.60
66184;DHT22;52989;48.796;9.806;2023-06-04T03:10:23;10.90;80.30
66184;DHT22;52989;48.796;9.806;2023-06-04T03:12:49;10.90;80.10
66184;DHT22;52989;48.796;9.806;2023-06-04T03:15:14;11.00;80.50
66184;DHT22;52989;48.796;9.806;2023-06-04T03:17:40;11.00;80.90
66184;DHT22;52989;48.796;9.806;2023-06-04T03:20:06;10.90;80.40
66184;DHT22;52989;48.796;9.806;2023-06-04T03:22:33;10.90;80.60
66184;DHT22;52989;48.796;9.806;2023-06-04T03:25:00;10.70;81.70
66184;DHT22;52989;48.796;9.806;2023-06-04T03:27:26;10.90;82.30
66184;DHT22;52989;48.796;9.806;2023-06-04T03:29:51;10.80;80.70
66184;DHT22;52989;48.796;9.806;2023-06-04T03:32:17;10.70;80.30
66184;DHT22;52989;48.796;9.806;2023-06-04T03:34:43;10.70;81.00
66184;DHT22;52989;48.796;9.806;2023-06-04T03:37:08;10.70;81.70
66184;DHT22;52989;48.796;9.806;2023-06-04T03:39:34;10.60;81.00
66184;DHT22;52989;48.796;9.806;2023-06-04T03:42:00;10.70;81.30
66184;DHT22;52989;48.796;9.806;2023-06-04T03:44:26;10.70;81.80
66184;DHT22;52989;48.796;9.806;2023-06-04T03:46:51;10.80;82.20
66184;DHT22;52989;48.796;9.806;2023-06-04T03:49:17;10.70;82.60
66184;DHT22;52989;48.796;9.806;2023-06-04T03:51:43;10.70;81.40
66184;DHT22;52989;48.796;9.806;2023-06-04T03:54:09;10.80;81.60
66184;DHT22;52989;48.796;9.806;2023-06-04T03:56:35;10.70;81.60
66184;DHT22;52989;48.796;9.806;2023-06-04T03:59:00;10.70;82.40
66184;DHT22;52989;48.796;9.806;2023-06-04T04:01:26;10.70;82.00
66184;DHT22;52989;48.796;9.806;2023-06-04T04:03:52;10.70;81.70
66184;DHT22;52989;48.796;9.806;2023-06-04T04:06:18;10.80;81.30
66184;DHT22;52989;48.796;9.806;2023-06-04T04:08:43;10.80;81.70
66184;DHT22;52989;48.796;9.806;2023-06-04T04:11:13;10.80;81.50
66184;DHT22;52989;48.796;9.806;2023-06-04T04:13:39;10.80;82.80
66184;DHT22;52989;48.796;9.806;2023-06-04T04:16:04;10.80;82.40
66184;DHT22;52989;48.796;9.806;2023-06-04T04:18:33;10.70;83.00
66184;DHT22;52989;48.796;9.806;2023-06-04T04:20:59;10.80;83.60
66184;DHT22;52989;48.796;9.806;2023-06-04T04:23:25;10.80;82.70
66184;DHT22;52989;48.796;9.806;2023-06-04T04:25:52;10.90;82.60
66184;DHT22;52989;48.796;9.806;2023-06-04T04:28:19;10.90;81.80
66184;DHT22;52989;48.796;9.806;2023-06-04T04:30:45;10.90;83.80
66184;DHT22;52989;48.796;9.806;2023-06-04T04:33:12;11.00;83.30
66184;DHT22;52989;48.796;9.806;2023-06-04T04:35:41;11.30;84.10
66184;DHT22;52989;48.796;9.806;2023-06-04T04:38:07;11.30;81.90
66184;DHT22;52989;48.796;9.806;2023-06-04T04:40:33;11.20;82.80
66184;DHT22;52989;48.796;9.806;2023-06-04T04:42:59;11.20;83.30
66184;DHT22;52989;48.796;9.806;2023-06-04T04:45:24;11.30;83.40
66184;DHT22;52989;48.796;9.806;2023-06-04T04:47:50;11.50;82.00
66184;DHT22;52989;48.796;9.806;2023-06-04T04:50:18;11.60;82.60
66184;DHT22;52989;48.796;9.806;2023-06-04T04:52:44;11.70;82.00
66184;DHT22;52989;48.796;9.806;2023-06-04T04:55:09;11.90;82.60
66184;DHT22;52989;48.796;9.806;2023-06-04T04:57:35;12.00;82.00
66184;DHT22;52989;48.796;9.806;2023-06-04T05:00:01;12.20;81.60
66184;DHT22;52989;48.796;9.806;2023-06-04T05:02:27;12.30;81.60
66184;DHT22;52989;48.796;9.806;2023-06-04T05:04:53;12.50;82.50
66184;DHT22;52989;48.796;9.806;2023-06-04T05:07:18;12.30;84.90
66184;DHT22;52989;48.796;9.806;2023-06-04T05:09:45;12.40;82.50
66184;DHT22;52989;48.796;9.806;2023-06-04T05:12:10;12.50;83.20
66184;DHT22;52989;48.796;9.806;2023-06-04T05:14:36;12.40;82.10
66184;DHT22;52989;48.796;9.806;2023-06-04T05:17:02;12.90;80.90
66184;DHT22;52989;48.796;9.806;2023-06-04T05:19:28;13.00;79.70
66184;DHT22;52989;48.796;9.806;2023-06-04T05:21:54;13.00;82.00
66184;DHT22;52989;48.796;9.806;2023-06-04T05:24:19;12.80;86.60
66184;DHT22;52989;48.796;9.806;2023-06-04T05:26:45;12.90;85.80
66184;DHT22;52989;48.796;9.806;2023-06-04T05:29:13;13.00;85.40
66184;DHT22;52989;48.796;9.806;2023-06-04T05:31:39;13.10;81.80
66184;DHT22;52989;48.796;9.806;2023-06-04T05:34:05;13.60;77.10
66184;DHT22;52989;48.796;9.806;2023-06-04T05:36:31;13.50;83.30
66184;DHT22;52989;48.796;9.806;2023-06-04T05:38:56;13.90;76.90
66184;DHT22;52989;48.796;9.806;2023-06-04T05:41:27;13.80;80.80
66184;DHT22;52989;48.796;9.806;2023-06-04T05:43:53;13.70;80.10
66184;DHT22;52989;48.796;9.806;2023-06-04T05:46:19;13.90;79.30
66184;DHT22;52989;48.796;9.806;2023-06-04T05:48:44;14.20;76.60
66184;DHT22;52989;48.796;9.806;2023-06-04T05:51:12;14.30;78.80
66184;DHT22;52989;48.796;9.806;2023-06-04T05:53:38;14.20;78.00
66184;DHT22;52989;48.796;9.806;2023-06-04T05:56:03;14.10;80.30
66184;DHT22;52989;48.796;9.806;2023-06-04T05:58:29;14.00;82.60
66184;DHT22;52989;48.796;9.806;2023-06-04T06:00:55;13.90;79.70
66184;DHT22;52989;48.796;9.806;2023-06-04T06:03:21;14.00;81.60
66184;DHT22;52989;48.796;9.806;2023-06-04T06:05:46;14.00;82.00
66184;DHT22;52989;48.796;9.806;2023-06-04T06:08:13;14.00;79.20
66184;DHT22;52989;48.796;9.806;2023-06-04T06:10:38;14.00;81.00
66184;DHT22;52989;48.796;9.806;2023-06-04T06:13:04;14.10;79.20
66184;DHT22;52989;48.796;9.806;2023-06-04T06:15:29;14.20;80.70
66184;DHT22;52989;48.796;9.806;2023-06-04T06:17:55;14.20;79.60
66184;DHT22;52989;48.796;9.806;2023-06-04T06:20:20;14.20;80.30
66184;DHT22;52989;48.796;9.806;2023-06-04T06:22:47;14.10;82.00
66184;DHT22;52989;48.796;9.806;2023-06-04T06:25:13;14.40;78.50
66184;DHT22;52989;48.796;9.806;2023-06-04T06:27:41;14.50;79.40
66184;DHT22;52989;48.796;9.806;2023-06-04T06:30:07;14.60;76.00
66184;DHT22;52989;48.796;9.806;2023-06-04T06:32:33;14.70;78.20
66184;DHT22;52989;48.796;9.806;2023-06-04T06:34:59;14.50;81.20
66184;DHT22;52989;48.796;9.806;2023-06-04T06:37:25;14.50;80.30
66184;DHT22;52989;48.796;9.806;2023-06-04T06:39:50;14.50;80.40
66184;DHT22;52989;48.796;9.806;2023-06-04T06:42:16;14.80;79.50
66184;DHT22;52989;48.796;9.806;2023-06-04T06:44:44;14.80;77.90
66184;DHT22;52989;48.796;9.806;2023-06-04T06:47:09;14.90;78.90
66184;DHT22;52989;48.796;9.806;2023-06-04T06:49:41;14.80;79.70
66184;DHT22;52989;48.796;9.806;2023-06-04T06:52:07;14.80;80.20
66184;DHT22;52989;48.796;9.806;2023-06-04T06:54:32;14.80;80.80
66184;DHT22;52989;48.796;9.806;2023-06-04T06:56:58;15.10;78.40
66184;DHT22;52989;48.796;9.806;2023-06-04T06:59:23;15.20;80.20
66184;DHT22;52989;48.796;9.806;2023-06-04T07:01:49;15.60;76.90
66184;DHT22;52989;48.796;9.806;2023-06-04T07:04:15;15.80;73.80
66184;DHT22;52989;48.796;9.806;2023-06-04T07:06:41;15.80;77.00
66184;DHT22;52989;48.796;9.806;2023-06-04T07:09:07;16.10;75.30
66184;DHT22;52989;48.796;9.806;2023-06-04T07:11:32;16.10;74.90
66184;DHT22;52989;48.796;9.806;2023-06-04T07:13:58;16.00;80.00
66184;DHT22;52989;48.796;9.806;2023-06-04T07:16:23;16.10;78.20
66184;DHT22;52989;48.796;9.806;2023-06-04T07:18:49;16.10;77.30
66184;DHT22;52989;48.796;9.806;2023-06-04T07:21:15;16.30;75.70
66184;DHT22;52989;48.796;9.806;2023-06-04T07:23:40;16.60;74.70
66184;DHT22;52989;48.796;9.806;2023-06-04T07:26:06;16.80;73.40
66184;DHT22;52989;48.796;9.806;2023-06-04T07:28:32;17.30;70.10
66184;DHT22;52989;48.796;9.806;2023-06-04T07:30:57;17.60;69.50
66184;DHT22;52989;48.796;9.806;2023-06-04T07:33:24;17.90;69.60
66184;DHT22;52989;48.796;9.806;2023-06-04T07:35:49;17.90;69.00
66184;DHT22;52989;48.796;9.806;2023-06-04T07:38:15;18.00;70.30
66184;DHT22;52989;48.796;9.806;2023-06-04T07:40:41;18.10;67.90
66184;DHT22;52989;48.796;9.806;2023-06-04T07:43:06;18.20;67.90
66184;DHT22;52989;48.796;9.806;2023-06-04T07:45:32;18.10;71.20
66184;DHT22;52989;48.796;9.806;2023-06-04T07:47:57;18.30;70.60
66184;DHT22;52989;48.796;9.806;2023-06-04T07:50:23;18.50;69.60
66184;DHT22;52989;48.796;9.806;2023-06-04T07:52:49;18.60;69.00
66184;DHT22;52989;48.796;9.806;2023-06-04T07:55:14;18.60;69.40
66184;DHT22;52989;48.796;9.806;2023-06-04T07:57:40;18.80;67.30
66184;DHT22;52989;48.796;9.806;2023-06-04T08:00:05;18.80;68.00
66184;DHT22;52989;48.796;9.806;2023-06-04T08:02:32;19.00;67.10
66184;DHT22;52989;48.796;9.806;2023-06-04T08:04:58;19.30;66.00
66184;DHT22;52989;48.796;9.806;2023-06-04T08:07:23;19.10;68.60
66184;DHT22;52989;48.796;9.806;2023-06-04T08:09:49;19.30;68.40
66184;DHT22;52989;48.796;9.806;2023-06-04T08:12:15;19.50;69.10
66184;DHT22;52989;48.796;9.806;2023-06-04T08:14:41;19.70;67.60
66184;DHT22;52989;48.796;9.806;2023-06-04T08:17:06;19.90;65.60
66184;DHT22;52989;48.796;9.806;2023-06-04T08:19:32;20.00;64.30
66184;DHT22;52989;48.796;9.806;2023-06-04T08:21:57;19.90;65.20
66184;DHT22;52989;48.796;9.806;2023-06-04T08:24:23;20.10;64.70
66184;DHT22;52989;48.796;9.806;2023-06-04T08:26:48;20.10;65.60
66184;DHT22;52989;48.796;9.806;2023-06-04T08:29:15;20.20;65.00
66184;DHT22;52989;48.796;9.806;2023-06-04T08:31:41;20.20;63.30
66184;DHT22;52989;48.796;9.806;2023-06-04T08:34:06;20.30;63.50
66184;DHT22;52989;48.796;9.806;2023-06-04T08:36:32;20.30;63.70
66184;DHT22;52989;48.796;9.806;2023-06-04T08:39:00;20.30;62.20
66184;DHT22;52989;48.796;9.806;2023-06-04T08:44:10;20.40;63.80
66184;DHT22;52989;48.796;9.806;2023-06-04T08:46:39;20.30;64.60
66184;DHT22;52989;48.796;9.806;2023-06-04T08:49:05;20.50;65.20
66184;DHT22;52989;48.796;9.806;2023-06-04T08:51:32;20.70;65.30
66184;DHT22;52989;48.796;9.806;2023-06-04T08:53:59;20.80;61.10
66184;DHT22;52989;48.796;9.806;2023-06-04T08:56:25;21.00;61.00
66184;DHT22;52989;48.796;9.806;2023-06-04T08:58:51;21.00;60.80
66184;DHT22;52989;48.796;9.806;2023-06-04T09:01:16;21.00;61.80
66184;DHT22;52989;48.796;9.806;2023-06-04T09:03:42;21.00;62.60
66184;DHT22;52989;48.796;9.806;2023-06-04T09:06:08;21.00;61.80
66184;DHT22;52989;48.796;9.806;2023-06-04T09:08:34;21.00;62.30
66184;DHT22;52989;48.796;9.806;2023-06-04T09:11:03;21.10;60.30
66184;DHT22;52989;48.796;9.806;2023-06-04T09:13:30;21.40;59.50
66184;DHT22;52989;48.796;9.806;2023-06-04T09:16:03;21.50;60.30
66184;DHT22;52989;48.796;9.806;2023-06-04T09:18:29;21.40;60.00
66184;DHT22;52989;48.796;9.806;2023-06-04T09:23:27;21.70;60.80
66184;DHT22;52989;48.796;9.806;2023-06-04T09:25:53;21.80;59.40
66184;DHT22;52989;48.796;9.806;2023-06-04T09:28:18;22.00;60.60
66184;DHT22;52989;48.796;9.806;2023-06-04T09:30:52;22.00;57.90
66184;DHT22;52989;48.796;9.806;2023-06-04T09:33:17;22.10;59.10
66184;DHT22;52989;48.796;9.806;2023-06-04T09:35:52;22.10;58.30
66184;DHT22;52989;48.796;9.806;2023-06-04T09:38:18;22.20;57.20
66184;DHT22;52989;48.796;9.806;2023-06-04T09:40:43;22.10;56.90
66184;DHT22;52989;48.796;9.806;2023-06-04T09:43:09;22.30;56.40
66184;DHT22;52989;48.796;9.806;2023-06-04T09:45:35;22.30;56.50
66184;DHT22;52989;48.796;9.806;2023-06-04T09:48:01;22.50;59.10
66184;DHT22;52989;48.796;9.806;2023-06-04T09:50:28;22.40;56.90
66184;DHT22;52989;48.796;9.806;2023-06-04T09:52:55;22.30;57.80
66184;DHT22;52989;48.796;9.806;2023-06-04T09:55:21;22.20;57.50
66184;DHT22;52989;48.796;9.806;2023-06-04T09:57:48;22.40;56.50
66184;DHT22;52989;48.796;9.806;2023-06-04T10:00:21;22.50;54.60
66184;DHT22;52989;48.796;9.806;2023-06-04T10:02:48;22.60;56.30
66184;DHT22;52989;48.796;9.806;2023-06-04T10:05:14;22.90;56.20
66184;DHT22;52989;48.796;9.806;2023-06-04T10:07:43;23.00;56.00
66184;DHT22;52989;48.796;9.806;2023-06-04T10:10:16;22.80;57.60
66184;DHT22;52989;48.796;9.806;2023-06-04T10:12:42;22.90;55.10
66184;DHT22;52989;48.796;9.806;2023-06-04T10:15:12;22.80;56.00
66184;DHT22;52989;48.796;9.806;2023-06-04T10:17:38;22.70;55.50
66184;DHT22;52989;48.796;9.806;2023-06-04T10:20:04;22.80;55.30
66184;DHT22;52989;48.796;9.806;2023-06-04T10:22:31;22.90;56.40
66184;DHT22;52989;48.796;9.806;2023-06-04T10:24:57;22.90;56.80
66184;DHT22;52989;48.796;9.806;2023-06-04T10:27:23;22.80;55.20
66184;DHT22;52989;48.796;9.806;2023-06-04T10:29:49;23.00;57.90
66184;DHT22;52989;48.796;9.806;2023-06-04T10:32:15;23.20;56.10
66184;DHT22;52989;48.796;9.806;2023-06-04T10:34:42;23.10;53.20
66184;DHT22;52989;48.796;9.806;2023-06-04T10:37:18;23.20;54.80
66184;DHT22;52989;48.796;9.806;2023-06-04T10:39:49;23.30;53.30
66184;DHT22;52989;48.796;9.806;2023-06-04T10:42:15;23.50;54.30
66184;DHT22;52989;48.796;9.806;2023-06-04T10:44:44;23.40;54.00
66184;DHT22;52989;48.796;9.806;2023-06-04T10:47:22;23.50;54.70
66184;DHT22;52989;48.796;9.806;2023-06-04T10:49:51;23.70;54.50
66184;DHT22;52989;48.796;9.806;2023-06-04T10:52:17;23.60;54.40
66184;DHT22;52989;48.796;9.806;2023-06-04T10:54:44;23.60;53.40
66184;DHT22;52989;48.796;9.806;2023-06-04T10:57:14;23.70;54.30
66184;DHT22;52989;48.796;9.806;2023-06-04T10:59:39;23.50;53.00
66184;DHT22;52989;48.796;9.806;2023-06-04T11:02:05;23.50;54.10
66184;DHT22;52989;48.796;9.806;2023-06-04T11:04:31;23.70;53.50
66184;DHT22;52989;48.796;9.806;2023-06-04T11:07:03;23.90;52.40
66184;DHT22;52989;48.796;9.806;2023-06-04T11:09:37;23.70;52.00
66184;DHT22;52989;48.796;9.806;2023-06-04T11:12:04;23.60;52.80
66184;DHT22;52989;48.796;9.806;2023-06-04T11:14:30;23.70;53.70
66184;DHT22;52989;48.796;9.806;2023-06-04T11:16:55;23.60;51.90
66184;DHT22;52989;48.796;9.806;2023-06-04T11:19:21;23.70;53.50
66184;DHT22;52989;48.796;9.806;2023-06-04T11:21:47;23.80;52.00
66184;DHT22;52989;48.796;9.806;2023-06-04T11:24:12;24.00;52.10
66184;DHT22;52989;48.796;9.806;2023-06-04T11:26:38;23.90;53.00
66184;DHT22;52989;48.796;9.806;2023-06-04T11:29:07;23.70;51.00
66184;DHT22;52989;48.796;9.806;2023-06-04T11:31:46;23.40;51.20
66184;DHT22;52989;48.796;9.806;2023-06-04T11:34:24;23.60;54.80
66184;DHT22;52989;48.796;9.806;2023-06-04T11:36:50;23.50;52.50
66184;DHT22;52989;48.796;9.806;2023-06-04T11:39:18;23.60;56.90
66184;DHT22;52989;48.796;9.806;2023-06-04T11:41:43;23.90;53.40
66184;DHT22;52989;48.796;9.806;2023-06-04T11:44:09;24.00;51.10
66184;DHT22;52989;48.796;9.806;2023-06-04T11:46:39;24.20;51.20
66184;DHT22;52989;48.796;9.806;2023-06-04T11:49:04;24.40;53.30
66184;DHT22;52989;48.796;9.806;2023-06-04T11:51:31;24.20;50.90
66184;DHT22;52989;48.796;9.806;2023-06-04T11:53:57;24.20;51.20
66184;DHT22;52989;48.796;9.806;2023-06-04T11:56:23;24.40;52.30
66184;DHT22;52989;48.796;9.806;2023-06-04T11:58:49;24.60;52.90
66184;DHT22;52989;48.796;9.806;2023-06-04T12:01:15;24.30;49.60
66184;DHT22;52989;48.796;9.806;2023-06-04T12:03:41;24.40;51.80
66184;DHT22;52989;48.796;9.806;2023-06-04T12:06:17;24.60;51.90
66184;DHT22;52989;48.796;9.806;2023-06-04T12:08:46;24.30;51.30
66184;DHT22;52989;48.796;9.806;2023-06-04T12:13:54;24.30;49.30
66184;DHT22;52989;48.796;9.806;2023-06-04T12:16:20;24.40;49.20
66184;DHT22;52989;48.796;9.806;2023-06-04T12:18:45;24.40;49.20
66184;DHT22;52989;48.796;9.806;2023-06-04T12:21:44;24.40;49.60
66184;DHT22;52989;48.796;9.806;2023-06-04T12:24:06;24.50;49.50
66184;DHT22;52989;48.796;9.806;2023-06-04T12:26:33;24.60;49.40
66184;DHT22;52989;48.796;9.806;2023-06-04T12:29:23;24.60;49.80
66184;DHT22;52989;48.796;9.806;2023-06-04T12:31:48;24.70;49.90
66184;DHT22;52989;48.796;9.806;2023-06-04T12:34:14;24.70;49.20
66184;DHT22;52989;48.796;9.806;2023-06-04T12:36:39;24.90;48.80
66184;DHT22;52989;48.796;9.806;2023-06-04T12:39:06;24.70;49.20
66184;DHT22;52989;48.796;9.806;2023-06-04T12:41:32;24.50;48.90
66184;DHT22;52989;48.796;9.806;2023-06-04T12:43:58;24.60;47.10
66184;DHT22;52989;48.796;9.806;2023-06-04T12:46:24;24.60;48.00
66184;DHT22;52989;48.796;9.806;2023-06-04T12:48:53;24.60;48.30
66184;DHT22;52989;48.796;9.806;2023-06-04T12:51:19;24.60;49.00
66184;DHT22;52989;48.796;9.806;2023-06-04T12:53:46;24.60;50.70
66184;DHT22;52989;48.796;9.806;2023-06-04T12:56:11;24.50;48.40
66184;DHT22;52989;48.796;9.806;2023-06-04T12:58:37;24.70;50.60
66184;DHT22;52989;48.796;9.806;2023-06-04T13:01:02;24.70;47.80
66184;DHT22;52989;48.796;9.806;2023-06-04T13:03:29;24.90;47.00
66184;DHT22;52989;48.796;9.806;2023-06-04T13:05:55;25.10;47.90
66184;DHT22;52989;48.796;9.806;2023-06-04T13:08:21;25.00;48.20
66184;DHT22;52989;48.796;9.806;2023-06-04T13:10:47;24.80;47.10
66184;DHT22;52989;48.796;9.806;2023-06-04T13:13:13;25.00;50.20
66184;DHT22;52989;48.796;9.806;2023-06-04T13:15:41;25.20;48.30
66184;DHT22;52989;48.796;9.806;2023-06-04T13:18:06;25.30;46.90
66184;DHT22;52989;48.796;9.806;2023-06-04T13:20:32;25.40;47.90
66184;DHT22;52989;48.796;9.806;2023-06-04T13:22:57;25.50;49.40
66184;DHT22;52989;48.796;9.806;2023-06-04T13:25:23;25.60;48.60
66184;DHT22;52989;48.796;9.806;2023-06-04T13:27:49;25.90;49.20
66184;DHT22;52989;48.796;9.806;2023-06-04T13:30:14;25.60;46.30
66184;DHT22;52989;48.796;9.806;2023-06-04T13:32:40;25.80;47.70
66184;DHT22;52989;48.796;9.806;2023-06-04T13:35:05;25.80;46.80
66184;DHT22;52989;48.796;9.806;2023-06-04T13:37:31;25.30;44.70
66184;DHT22;52989;48.796;9.806;2023-06-04T13:39:56;25.50;46.60
66184;DHT22;52989;48.796;9.806;2023-06-04T13:42:22;25.40;48.00
66184;DHT22;52989;48.796;9.806;2023-06-04T13:44:47;25.20;46.70
66184;DHT22;52989;48.796;9.806;2023-06-04T13:47:13;25.30;46.40
66184;DHT22;52989;48.796;9.806;2023-06-04T13:49:38;25.00;46.80
66184;DHT22;52989;48.796;9.806;2023-06-04T13:52:04;24.80;48.50
66184;DHT22;52989;48.796;9.806;2023-06-04T13:54:29;24.90;48.50
66184;DHT22;52989;48.796;9.806;2023-06-04T13:56:56;25.10;47.10
66184;DHT22;52989;48.796;9.806;2023-06-04T13:59:22;25.30;46.40
66184;DHT22;52989;48.796;9.806;2023-06-04T14:01:47;25.50;44.70
66184;DHT22;52989;48.796;9.806;2023-06-04T14:04:13;25.60;46.70
66184;DHT22;52989;48.796;9.806;2023-06-04T14:06:38;26.00;46.80
66184;DHT22;52989;48.796;9.806;2023-06-04T14:09:04;26.00;46.20
66184;DHT22;52989;48.796;9.806;2023-06-04T14:11:32;26.00;46.40
66184;DHT22;52989;48.796;9.806;2023-06-04T14:13:58;25.60;45.90
66184;DHT22;52989;48.796;9.806;2023-06-04T14:16:23;25.70;47.40
66184;DHT22;52989;48.796;9.806;2023-06-04T14:18:49;25.50;45.30
66184;DHT22;52989;48.796;9.806;2023-06-04T14:21:14;25.60;45.30
66184;DHT22;52989;48.796;9.806;2023-06-04T14:23:40;25.40;45.50
66184;DHT22;52989;48.796;9.806;2023-06-04T14:26:06;25.40;44.50
66184;DHT22;52989;48.796;9.806;2023-06-04T14:28:31;25.40;46.70
66184;DHT22;52989;48.796;9.806;2023-06-04T14:30:57;25.40;44.90
66184;DHT22;52989;48.796;9.806;2023-06-04T14:33:23;25.60;44.40
66184;DHT22;52989;48.796;9.806;2023-06-04T14:35:49;25.40;44.60
66184;DHT22;52989;48.796;9.806;2023-06-04T14:38:17;25.70;44.00
66184;DHT22;52989;48.796;9.806;2023-06-04T14:40:42;25.60;47.20
66184;DHT22;52989;48.796;9.806;2023-06-04T14:43:11;25.40;45.90
66184;DHT22;52989;48.796;9.806;2023-06-04T14:45:37;25.40;46.00
66184;DHT22;52989;48.796;9.806;2023-06-04T14:48:04;25.30;45.80
66184;DHT22;52989;48.796;9.806;2023-06-04T14:50:30;25.60;46.50
66184;DHT22;52989;48.796;9.806;2023-06-04T14:52:55;25.50;45.30
66184;DHT22;52989;48.796;9.806;2023-06-04T14:55:21;25.70;46.60
66184;DHT22;52989;48.796;9.806;2023-06-04T14:57:48;25.60;44.90
66184;DHT22;52989;48.796;9.806;2023-06-04T15:00:14;25.50;45.70
66184;DHT22;52989;48.796;9.806;2023-06-04T15:02:39;25.50;46.70
66184;DHT22;52989;48.796;9.806;2023-06-04T15:05:05;25.40;47.00
66184;DHT22;52989;48.796;9.806;2023-06-04T15:07:31;25.50;47.20
66184;DHT22;52989;48.796;9.806;2023-06-04T15:09:56;25.40;47.60
66184;DHT22;52989;48.796;9.806;2023-06-04T15:12:22;25.60;46.60
66184;DHT22;52989;48.796;9.806;2023-06-04T15:14:47;25.50;47.90
66184;DHT22;52989;48.796;9.806;2023-06-04T15:17:13;25.60;46.70
66184;DHT22;52989;48.796;9.806;2023-06-04T15:19:38;25.60;47.00
66184;DHT22;52989;48.796;9.806;2023-06-04T15:22:04;25.60;45.90
66184;DHT22;52989;48.796;9.806;2023-06-04T15:24:29;25.80;46.80
66184;DHT22;52989;48.796;9.806;2023-06-04T15:26:55;25.80;45.70
66184;DHT22;52989;48.796;9.806;2023-06-04T15:29:20;25.70;46.60
66184;DHT22;52989;48.796;9.806;2023-06-04T15:31:46;25.50;45.80
66184;DHT22;52989;48.796;9.806;2023-06-04T15:34:12;25.60;46.80
66184;DHT22;52989;48.796;9.806;2023-06-04T15:36:37;25.60;45.70